sensor_id;sensor_type;location;lat;lon;timestamp;temperature;humidity
43087;DHT22;28708;52.224;6.924;2023-09-19T00:02:03;16.10;99.90
43087;DHT22;28708;52.224;6.924;2023-09-19T00:04:32;16.00;99.90
43087;DHT22;28708;52.224;6.924;2023-09-19T00:06:58;16.10;99.90
43087;DHT22;28708;52.224;6.924;2023-09-19T00:09:24;16.00;99.90
43087;DHT22;28708;52.224;6.924;2023-09-19T00:11:53;16.00;99.90
43087;DHT22;28708;52.224;6.924;2023-09-19T00:14:19;16.00;99.90
43087;DHT22;28708;52.224;6.924;2023-09-19T00:16:45;15.90;99.90
43087;DHT22;28708;52.224;6.924;2023-09-19T00:19:11;15.90;99.90
43087;DHT22;28708;52.224;6.924;2023-09-19T00:21:37;15.90;99.90
43087;DHT22;28708;52.224;6.924;2023-09-19T00:24:04;15.80;99.90
43087;DHT22;28708;52.224;6.924;2023-09-19T00:26:32;15.90;99.90
43087;DHT22;28708;52.224;6.924;2023-09-19T00:28:58;15.90;99.90
43087;DHT22;28708;52.224;6.924;2023-09-19T00:31:34;15.80;99.90
43087;DHT22;28708;52.224;6.924;2023-09-19T00:34:01;15.90;99.90
43087;DHT22;28708;52.224;6.924;2023-09-19T00:36:29;15.80;99.90
43087;DHT22;28708;52.224;6.924;2023-09-19T00:38:55;15.80;99.90
43087;DHT22;28708;52.224;6.924;2023-09-19T00:41:20;15.70;99.90
43087;DHT22;28708;52.224;6.924;2023-09-19T00:43:46;15.80;99.90
43087;DHT22;28708;52.224;6.924;2023-09-19T00:46:17;15.70;99.90
43087;DHT22;28708;52.224;6.924;2023-09-19T00:48:43;15.70;99.90
43087;DHT22;28708;52.224;6.924;2023-09-19T00:51:09;15.60;99.90
43087;DHT22;28708;52.224;6.924;2023-09-19T00:53:35;15.60;99.90
43087;DHT22;28708;52.224;6.924;2023-09-19T00:56:03;15.60;99.90
43087;DHT22;28708;52.224;6.924;2023-09-19T00:58:33;15.70;99.90
43087;DHT22;28708;52.224;6.924;2023-09-19T01:01:01;15.60;99.90
43087;DHT22;28708;52.224;6.924;2023-09-19T01:03:27;15.70;99.90
43087;DHT22;28708;52.224;6.924;2023-09-19T01:05:53;15.60;99.90
43087;DHT22;28708;52.224;6.924;2023-09-19T01:08:19;15.70;99.90
43087;DHT22;28708;52.224;6.924;2023-09-19T01:13:52;15.60;99.90
43087;DHT22;28708;52.224;6.924;2023-09-19T01:25:15;15.60;99.90
43087;DHT22;28708;52.224;6.924;2023-09-19T01:28:15;15.60;99.90
43087;DHT22;28708;52.224;6.924;2023-09-19T01:30:46;15.60;99.90
43087;DHT22;28708;52.224;6.924;2023-09-19T01:33:12;15.50;99.90
43087;DHT22;28708;52.224;6.924;2023-09-19T01:35:39;15.50;99.90
43087;DHT22;28708;52.224;6.924;2023-09-19T01:38:06;15.50;99.90
43087;DHT22;28708;52.224;6.924;2023-09-19T01:40:41;15.40;99.90
43087;DHT22;28708;52.224;6.924;2023-09-19T01:43:43;15.40;99.90
43087;DHT22;28708;52.224;6.924;2023-09-19T01:46:28;15.40;99.90
43087;DHT22;28708;52.224;6.924;2023-09-19T01:51:41;15.40;99.90
43087;DHT22;28708;52.224;6.924;2023-09-19T01:54:11;15.40;99.90
43087;DHT22;28708;52.224;6.924;2023-09-19T01:59:43;15.40;99.90
43087;DHT22;28708;52.224;6.924;2023-09-19T02:02:11;15.40;99.90
43087;DHT22;28708;52.224;6.924;2023-09-19T02:04:37;15.40;99.90
43087;DHT22;28708;52.224;6.924;2023-09-19T02:07:03;15.30;99.90
43087;DHT22;28708;52.224;6.924;2023-09-19T02:09:31;15.30;99.90
43087;DHT22;28708;52.224;6.924;2023-09-19T02:12:01;15.30;99.90
43087;DHT22;28708;52.224;6.924;2023-09-19T02:14:29;15.30;99.90
43087;DHT22;28708;52.224;6.924;2023-09-19T02:16:56;15.30;99.90
43087;DHT22;28708;52.224;6.924;2023-09-19T02:19:22;15.20;99.90
43087;DHT22;28708;52.224;6.924;2023-09-19T02:21:49;15.20;99.90
43087;DHT22;28708;52.224;6.924;2023-09-19T02:24:15;15.10;99.90
43087;DHT22;28708;52.224;6.924;2023-09-19T02:26:41;15.10;99.90
43087;DHT22;28708;52.224;6.924;2023-09-19T02:29:06;15.00;99.90
43087;DHT22;28708;52.224;6.924;2023-09-19T02:31:32;15.00;99.90
43087;DHT22;28708;52.224;6.924;2023-09-19T02:33:58;14.90;99.90
43087;DHT22;28708;52.224;6.924;2023-09-19T02:36:25;15.00;99.90
43087;DHT22;28708;52.224;6.924;2023-09-19T02:38:51;14.90;99.90
43087;DHT22;28708;52.224;6.924;2023-09-19T02:41:17;14.90;99.90
43087;DHT22;28708;52.224;6.924;2023-09-19T02:43:42;14.80;99.90
43087;DHT22;28708;52.224;6.924;2023-09-19T02:46:08;14.80;99.90
43087;DHT22;28708;52.224;6.924;2023-09-19T02:48:34;14.80;99.90
43087;DHT22;28708;52.224;6.924;2023-09-19T02:51:01;14.80;99.90
43087;DHT22;28708;52.224;6.924;2023-09-19T02:53:29;14.70;99.90
43087;DHT22;28708;52.224;6.924;2023-09-19T02:55:56;14.70;99.90
43087;DHT22;28708;52.224;6.924;2023-09-19T02:58:22;14.70;99.90
43087;DHT22;28708;52.224;6.924;2023-09-19T03:00:49;14.70;99.90
43087;DHT22;28708;52.224;6.924;2023-09-19T03:03:15;14.60;99.90
43087;DHT22;28708;52.224;6.924;2023-09-19T03:05:41;14.70;99.90
43087;DHT22;28708;52.224;6.924;2023-09-19T03:08:14;14.60;99.90
43087;DHT22;28708;52.224;6.924;2023-09-19T03:10:40;14.60;99.90
43087;DHT22;28708;52.224;6.924;2023-09-19T03:13:06;14.60;99.90
43087;DHT22;28708;52.224;6.924;2023-09-19T03:15:35;14.60;99.90
43087;DHT22;28708;52.224;6.924;2023-09-19T03:18:04;14.60;99.90
43087;DHT22;28708;52.224;6.924;2023-09-19T03:20:30;14.60;99.90
43087;DHT22;28708;52.224;6.924;2023-09-19T03:22:56;14.50;99.90
43087;DHT22;28708;52.224;6.924;2023-09-19T03:25:22;14.50;99.90
43087;DHT22;28708;52.224;6.924;2023-09-19T03:27:50;14.40;99.90
43087;DHT22;28708;52.224;6.924;2023-09-19T03:30:15;14.40;99.90
43087;DHT22;28708;52.224;6.924;2023-09-19T03:32:48;14.40;99.90
43087;DHT22;28708;52.224;6.924;2023-09-19T03:35:16;14.40;99.90
43087;DHT22;28708;52.224;6.924;2023-09-19T03:37:42;14.40;99.90
43087;DHT22;28708;52.224;6.924;2023-09-19T03:40:09;14.40;99.90
43087;DHT22;28708;52.224;6.924;2023-09-19T03:42:40;14.40;99.90
43087;DHT22;28708;52.224;6.924;2023-09-19T03:45:09;14.40;99.90
43087;DHT22;28708;52.224;6.924;2023-09-19T03:47:39;14.40;99.90
43087;DHT22;28708;52.224;6.924;2023-09-19T03:50:06;14.30;99.90
43087;DHT22;28708;52.224;6.924;2023-09-19T03:52:34;14.30;99.90
43087;DHT22;28708;52.224;6.924;2023-09-19T03:55:00;14.30;99.90
43087;DHT22;28708;52.224;6.924;2023-09-19T03:57:28;14.30;99.90
43087;DHT22;28708;52.224;6.924;2023-09-19T03:59:53;14.20;99.90
43087;DHT22;28708;52.224;6.924;2023-09-19T04:02:20;14.30;99.90
43087;DHT22;28708;52.224;6.924;2023-09-19T04:04:50;14.30;99.90
43087;DHT22;28708;52.224;6.924;2023-09-19T04:07:16;14.20;99.90
43087;DHT22;28708;52.224;6.924;2023-09-19T04:09:42;14.20;99.90
43087;DHT22;28708;52.224;6.924;2023-09-19T04:12:08;14.20;99.90
43087;DHT22;28708;52.224;6.924;2023-09-19T04:14:37;14.20;99.90
43087;DHT22;28708;52.224;6.924;2023-09-19T04:17:04;14.10;99.90
43087;DHT22;28708;52.224;6.924;2023-09-19T04:19:31;14.10;99.90
43087;DHT22;28708;52.224;6.924;2023-09-19T04:21:57;14.10;99.90
43087;DHT22;28708;52.224;6.924;2023-09-19T04:24:22;14.10;99.90
43087;DHT22;28708;52.224;6.924;2023-09-19T04:26:48;14.00;99.90
43087;DHT22;28708;52.224;6.924;2023-09-19T04:29:14;14.00;99.90
43087;DHT22;28708;52.224;6.924;2023-09-19T04:31:40;14.00;99.90
43087;DHT22;28708;52.224;6.924;2023-09-19T04:34:09;13.90;99.90
43087;DHT22;28708;52.224;6.924;2023-09-19T04:36:35;14.00;99.90
43087;DHT22;28708;52.224;6.924;2023-09-19T04:39:03;13.80;99.90
43087;DHT22;28708;52.224;6.924;2023-09-19T04:41:32;13.80;99.90
43087;DHT22;28708;52.224;6.924;2023-09-19T04:43:59;13.80;99.90
43087;DHT22;28708;52.224;6.924;2023-09-19T04:46:25;13.80;99.90
43087;DHT22;28708;52.224;6.924;2023-09-19T04:48:51;13.80;99.90
43087;DHT22;28708;52.224;6.924;2023-09-19T04:51:16;13.70;99.90
43087;DHT22;28708;52.224;6.924;2023-09-19T04:53:44;13.80;99.90
43087;DHT22;28708;52.224;6.924;2023-09-19T04:56:10;13.80;99.90
43087;DHT22;28708;52.224;6.924;2023-09-19T04:58:35;13.80;99.90
43087;DHT22;28708;52.224;6.924;2023-09-19T05:01:03;13.70;99.90
43087;DHT22;28708;52.224;6.924;2023-09-19T05:03:30;13.70;99.90
43087;DHT22;28708;52.224;6.924;2023-09-19T05:05:55;13.70;99.90
43087;DHT22;28708;52.224;6.924;2023-09-19T05:08:21;13.70;99.90
43087;DHT22;28708;52.224;6.924;2023-09-19T05:10:48;13.70;99.90
43087;DHT22;28708;52.224;6.924;2023-09-19T05:13:14;13.70;99.90
43087;DHT22;28708;52.224;6.924;2023-09-19T05:15:40;13.70;99.90
43087;DHT22;28708;52.224;6.924;2023-09-19T05:18:06;13.60;99.90
43087;DHT22;28708;52.224;6.924;2023-09-19T05:20:32;13.60;99.90
43087;DHT22;28708;52.224;6.924;2023-09-19T05:23:03;13.60;99.90
43087;DHT22;28708;52.224;6.924;2023-09-19T05:25:35;13.50;99.90
43087;DHT22;28708;52.224;6.924;2023-09-19T05:28:03;13.60;99.90
43087;DHT22;28708;52.224;6.924;2023-09-19T05:30:29;13.60;99.90
43087;DHT22;28708;52.224;6.924;2023-09-19T05:32:55;13.60;99.90
43087;DHT22;28708;52.224;6.924;2023-09-19T05:35:22;13.60;99.90
43087;DHT22;28708;52.224;6.924;2023-09-19T05:37:50;13.60;99.90
43087;DHT22;28708;52.224;6.924;2023-09-19T05:40:17;13.50;99.90
43087;DHT22;28708;52.224;6.924;2023-09-19T05:42:43;13.50;99.90
43087;DHT22;28708;52.224;6.924;2023-09-19T05:45:10;13.60;99.90
43087;DHT22;28708;52.224;6.924;2023-09-19T05:47:42;13.50;99.90
43087;DHT22;28708;52.224;6.924;2023-09-19T05:50:09;13.60;99.90
43087;DHT22;28708;52.224;6.924;2023-09-19T05:52:38;13.60;99.90
43087;DHT22;28708;52.224;6.924;2023-09-19T05:55:05;13.70;99.90
43087;DHT22;28708;52.224;6.924;2023-09-19T05:57:32;13.80;99.90
43087;DHT22;28708;52.224;6.924;2023-09-19T05:59:58;13.80;99.90
43087;DHT22;28708;52.224;6.924;2023-09-19T06:02:24;13.80;99.90
43087;DHT22;28708;52.224;6.924;2023-09-19T06:04:54;13.80;99.90
43087;DHT22;28708;52.224;6.924;2023-09-19T06:07:22;13.80;99.90
43087;DHT22;28708;52.224;6.924;2023-09-19T06:09:48;13.90;99.90
43087;DHT22;28708;52.224;6.924;2023-09-19T06:12:14;14.00;99.90
43087;DHT22;28708;52.224;6.924;2023-09-19T06:14:41;14.00;99.90
43087;DHT22;28708;52.224;6.924;2023-09-19T06:17:06;14.00;99.90
43087;DHT22;28708;52.224;6.924;2023-09-19T06:19:32;14.00;99.90
43087;DHT22;28708;52.224;6.924;2023-09-19T06:21:58;14.00;99.90
43087;DHT22;28708;52.224;6.924;2023-09-19T06:24:25;14.00;99.90
43087;DHT22;28708;52.224;6.924;2023-09-19T06:26:51;14.00;99.90
43087;DHT22;28708;52.224;6.924;2023-09-19T06:29:18;14.00;99.90
43087;DHT22;28708;52.224;6.924;2023-09-19T06:31:46;14.00;99.90
43087;DHT22;28708;52.224;6.924;2023-09-19T06:34:12;13.90;99.90
43087;DHT22;28708;52.224;6.924;2023-09-19T06:36:41;13.90;99.90
43087;DHT22;28708;52.224;6.924;2023-09-19T06:39:07;13.90;99.90
43087;DHT22;28708;52.224;6.924;2023-09-19T06:41:37;14.00;99.90
43087;DHT22;28708;52.224;6.924;2023-09-19T06:44:08;14.00;99.90
43087;DHT22;28708;52.224;6.924;2023-09-19T06:46:35;13.90;99.90
43087;DHT22;28708;52.224;6.924;2023-09-19T06:49:01;14.00;99.90
43087;DHT22;28708;52.224;6.924;2023-09-19T06:51:32;14.00;99.90
43087;DHT22;28708;52.224;6.924;2023-09-19T06:53:58;14.10;99.90
43087;DHT22;28708;52.224;6.924;2023-09-19T06:56:24;14.20;99.90
43087;DHT22;28708;52.224;6.924;2023-09-19T06:58:51;14.20;99.90
43087;DHT22;28708;52.224;6.924;2023-09-19T07:01:17;14.20;99.90
43087;DHT22;28708;52.224;6.924;2023-09-19T07:03:43;14.30;99.90
43087;DHT22;28708;52.224;6.924;2023-09-19T07:06:11;14.40;99.90
43087;DHT22;28708;52.224;6.924;2023-09-19T07:08:36;14.40;99.90
43087;DHT22;28708;52.224;6.924;2023-09-19T07:11:04;14.50;99.90
43087;DHT22;28708;52.224;6.924;2023-09-19T07:13:32;14.50;99.90
43087;DHT22;28708;52.224;6.924;2023-09-19T07:16:01;14.40;99.90
43087;DHT22;28708;52.224;6.924;2023-09-19T07:18:26;14.50;99.90
43087;DHT22;28708;52.224;6.924;2023-09-19T07:20:59;14.60;99.90
43087;DHT22;28708;52.224;6.924;2023-09-19T07:23:31;14.70;99.90
43087;DHT22;28708;52.224;6.924;2023-09-19T07:26:01;14.60;99.90
43087;DHT22;28708;52.224;6.924;2023-09-19T07:28:27;14.70;99.90
43087;DHT22;28708;52.224;6.924;2023-09-19T07:30:53;14.70;99.90
43087;DHT22;28708;52.224;6.924;2023-09-19T07:33:19;14.80;99.90
43087;DHT22;28708;52.224;6.924;2023-09-19T07:35:46;14.80;99.90
43087;DHT22;28708;52.224;6.924;2023-09-19T07:38:12;14.80;99.90
43087;DHT22;28708;52.224;6.924;2023-09-19T07:40:38;14.90;99.90
43087;DHT22;28708;52.224;6.924;2023-09-19T07:43:03;15.10;99.90
43087;DHT22;28708;52.224;6.924;2023-09-19T07:45:31;15.20;99.90
43087;DHT22;28708;52.224;6.924;2023-09-19T07:47:57;15.10;99.90
43087;DHT22;28708;52.224;6.924;2023-09-19T07:50:23;15.20;99.90
43087;DHT22;28708;52.224;6.924;2023-09-19T07:52:50;15.20;99.90
43087;DHT22;28708;52.224;6.924;2023-09-19T07:55:19;15.30;99.90
43087;DHT22;28708;52.224;6.924;2023-09-19T07:57:48;15.30;99.90
43087;DHT22;28708;52.224;6.924;2023-09-19T08:00:15;15.30;99.90
43087;DHT22;28708;52.224;6.924;2023-09-19T08:02:41;15.50;99.90
43087;DHT22;28708;52.224;6.924;2023-09-19T08:05:08;15.40;99.90
43087;DHT22;28708;52.224;6.924;2023-09-19T08:07:42;15.50;99.90
43087;DHT22;28708;52.224;6.924;2023-09-19T08:10:09;15.50;99.90
43087;DHT22;28708;52.224;6.924;2023-09-19T08:12:44;15.50;99.90
43087;DHT22;28708;52.224;6.924;2023-09-19T08:15:20;15.50;99.90
43087;DHT22;28708;52.224;6.924;2023-09-19T08:17:46;15.50;99.90
43087;DHT22;28708;52.224;6.924;2023-09-19T08:20:12;15.60;99.90
43087;DHT22;28708;52.224;6.924;2023-09-19T08:22:52;15.70;99.90
43087;DHT22;28708;52.224;6.924;2023-09-19T08:25:21;15.70;99.90
43087;DHT22;28708;52.224;6.924;2023-09-19T08:27:48;15.80;99.90
43087;DHT22;28708;52.224;6.924;2023-09-19T08:30:21;15.90;99.90
43087;DHT22;28708;52.224;6.924;2023-09-19T08:32:57;16.00;99.90
43087;DHT22;28708;52.224;6.924;2023-09-19T08:35:24;16.00;99.90
43087;DHT22;28708;52.224;6.924;2023-09-19T08:37:49;16.00;99.90
43087;DHT22;28708;52.224;6.924;2023-09-19T08:40:16;16.00;99.90
43087;DHT22;28708;52.224;6.924;2023-09-19T08:42:55;16.00;99.90
43087;DHT22;28708;52.224;6.924;2023-09-19T08:45:22;16.20;99.90
43087;DHT22;28708;52.224;6.924;2023-09-19T08:50:49;16.20;99.90
43087;DHT22;28708;52.224;6.924;2023-09-19T08:53:27;16.40;99.90
43087;DHT22;28708;52.224;6.924;2023-09-19T08:55:59;16.40;99.90
43087;DHT22;28708;52.224;6.924;2023-09-19T08:58:29;16.60;99.90
43087;DHT22;28708;52.224;6.924;2023-09-19T09:00:57;16.60;99.90
43087;DHT22;28708;52.224;6.924;2023-09-19T09:03:24;16.70;99.90
43087;DHT22;28708;52.224;6.924;2023-09-19T09:05:51;16.80;99.90
43087;DHT22;28708;52.224;6.924;2023-09-19T09:08:18;17.00;99.90
43087;DHT22;28708;52.224;6.924;2023-09-19T09:10:45;16.60;99.90
43087;DHT22;28708;52.224;6.924;2023-09-19T09:13:12;16.80;99.90
43087;DHT22;28708;52.224;6.924;2023-09-19T09:15:41;17.00;99.90
43087;DHT22;28708;52.224;6.924;2023-09-19T09:18:07;17.00;99.90
43087;DHT22;28708;52.224;6.924;2023-09-19T09:20:33;16.80;99.90
43087;DHT22;28708;52.224;6.924;2023-09-19T09:22:59;17.00;99.90
43087;DHT22;28708;52.224;6.924;2023-09-19T09:25:52;17.20;99.90
43087;DHT22;28708;52.224;6.924;2023-09-19T09:28:34;17.00;99.90
43087;DHT22;28708;52.224;6.924;2023-09-19T09:31:01;17.20;99.90
43087;DHT22;28708;52.224;6.924;2023-09-19T09:33:38;17.30;99.90
43087;DHT22;28708;52.224;6.924;2023-09-19T09:36:05;17.10;99.90
43087;DHT22;28708;52.224;6.924;2023-09-19T09:38:46;17.30;99.90
43087;DHT22;28708;52.224;6.924;2023-09-19T09:41:15;17.60;99.90
43087;DHT22;28708;52.224;6.924;2023-09-19T09:43:53;17.60;99.90
43087;DHT22;28708;52.224;6.924;2023-09-19T09:46:20;17.70;99.90
43087;DHT22;28708;52.224;6.924;2023-09-19T09:51:42;17.80;99.90
43087;DHT22;28708;52.224;6.924;2023-09-19T09:54:16;18.60;99.90
43087;DHT22;28708;52.224;6.924;2023-09-19T09:56:57;19.20;99.90
43087;DHT22;28708;52.224;6.924;2023-09-19T09:59:58;18.80;99.90
43087;DHT22;28708;52.224;6.924;2023-09-19T10:02:37;18.50;99.90
43087;DHT22;28708;52.224;6.924;2023-09-19T10:07:52;18.90;99.90
43087;DHT22;28708;52.224;6.924;2023-09-19T10:10:38;19.20;99.90
43087;DHT22;28708;52.224;6.924;2023-09-19T10:13:19;18.90;99.90
43087;DHT22;28708;52.224;6.924;2023-09-19T10:15:49;18.90;99.90
43087;DHT22;28708;52.224;6.924;2023-09-19T10:18:25;19.50;99.90
43087;DHT22;28708;52.224;6.924;2023-09-19T10:20:51;19.60;99.90
43087;DHT22;28708;52.224;6.924;2023-09-19T10:23:19;19.10;99.90
43087;DHT22;28708;52.224;6.924;2023-09-19T10:25:49;19.40;99.90
43087;DHT22;28708;52.224;6.924;2023-09-19T10:28:16;19.90;99.90
43087;DHT22;28708;52.224;6.924;2023-09-19T10:30:48;20.00;99.90
43087;DHT22;28708;52.224;6.924;2023-09-19T10:33:17;20.60;99.90
43087;DHT22;28708;52.224;6.924;2023-09-19T10:35:48;19.00;99.90
43087;DHT22;28708;52.224;6.924;2023-09-19T10:38:18;18.90;99.90
43087;DHT22;28708;52.224;6.924;2023-09-19T10:40:51;18.90;99.90
43087;DHT22;28708;52.224;6.924;2023-09-19T10:43:19;20.10;99.90
43087;DHT22;28708;52.224;6.924;2023-09-19T10:45:49;19.50;99.90
43087;DHT22;28708;52.224;6.924;2023-09-19T10:48:16;19.60;99.90
43087;DHT22;28708;52.224;6.924;2023-09-19T10:53:14;19.80;99.90
43087;DHT22;28708;52.224;6.924;2023-09-19T10:55:55;18.90;99.90
43087;DHT22;28708;52.224;6.924;2023-09-19T10:58:29;19.30;99.90
43087;DHT22;28708;52.224;6.924;2023-09-19T11:00:56;19.40;99.90
43087;DHT22;28708;52.224;6.924;2023-09-19T11:03:25;19.50;99.90
43087;DHT22;28708;52.224;6.924;2023-09-19T11:06:10;19.40;99.90
43087;DHT22;28708;52.224;6.924;2023-09-19T11:11:39;18.50;99.90
43087;DHT22;28708;52.224;6.924;2023-09-19T11:25:43;19.70;99.90
43087;DHT22;28708;52.224;6.924;2023-09-19T11:28:28;19.60;99.90
43087;DHT22;28708;52.224;6.924;2023-09-19T11:30:56;19.20;99.90
43087;DHT22;28708;52.224;6.924;2023-09-19T11:33:28;19.00;99.90
43087;DHT22;28708;52.224;6.924;2023-09-19T11:36:15;18.70;99.90
43087;DHT22;28708;52.224;6.924;2023-09-19T11:46:55;19.30;99.90
43087;DHT22;28708;52.224;6.924;2023-09-19T11:49:31;18.90;99.90
43087;DHT22;28708;52.224;6.924;2023-09-19T11:51:59;19.00;99.90
43087;DHT22;28708;52.224;6.924;2023-09-19T11:54:32;18.80;99.90
43087;DHT22;28708;52.224;6.924;2023-09-19T11:56:59;18.80;99.90
43087;DHT22;28708;52.224;6.924;2023-09-19T11:59:27;18.80;99.90
43087;DHT22;28708;52.224;6.924;2023-09-19T12:01:55;18.70;99.90
43087;DHT22;28708;52.224;6.924;2023-09-19T12:04:38;18.90;99.90
43087;DHT22;28708;52.224;6.924;2023-09-19T12:07:14;18.90;99.90
43087;DHT22;28708;52.224;6.924;2023-09-19T12:09:46;19.10;99.90
43087;DHT22;28708;52.224;6.924;2023-09-19T12:12:28;19.30;99.90
43087;DHT22;28708;52.224;6.924;2023-09-19T12:14:56;19.50;99.90
43087;DHT22;28708;52.224;6.924;2023-09-19T12:17:38;19.40;99.90
43087;DHT22;28708;52.224;6.924;2023-09-19T12:20:08;19.20;99.90
43087;DHT22;28708;52.224;6.924;2023-09-19T12:22:45;19.10;99.90
43087;DHT22;28708;52.224;6.924;2023-09-19T12:25:12;18.90;99.90
43087;DHT22;28708;52.224;6.924;2023-09-19T12:27:45;18.60;99.90
43087;DHT22;28708;52.224;6.924;2023-09-19T12:30:27;18.70;99.90
43087;DHT22;28708;52.224;6.924;2023-09-19T12:32:54;18.60;99.90
43087;DHT22;28708;52.224;6.924;2023-09-19T12:35:28;18.70;99.90
43087;DHT22;28708;52.224;6.924;2023-09-19T12:37:55;18.80;99.90
43087;DHT22;28708;52.224;6.924;2023-09-19T12:40:22;18.80;99.90
43087;DHT22;28708;52.224;6.924;2023-09-19T12:42:54;18.90;99.90
43087;DHT22;28708;52.224;6.924;2023-09-19T12:45:24;19.10;99.90
43087;DHT22;28708;52.224;6.924;2023-09-19T12:48:22;19.10;99.90
43087;DHT22;28708;52.224;6.924;2023-09-19T12:51:05;19.70;99.90
43087;DHT22;28708;52.224;6.924;2023-09-19T12:53:36;19.50;99.90
43087;DHT22;28708;52.224;6.924;2023-09-19T12:56:06;19.50;99.90
43087;DHT22;28708;52.224;6.924;2023-09-19T12:58:34;19.40;99.90
43087;DHT22;28708;52.224;6.924;2023-09-19T13:01:00;19.40;99.90
43087;DHT22;28708;52.224;6.924;2023-09-19T13:03:30;19.30;99.90
43087;DHT22;28708;52.224;6.924;2023-09-19T13:06:03;19.30;99.90
43087;DHT22;28708;52.224;6.924;2023-09-19T13:08:31;19.40;99.90
43087;DHT22;28708;52.224;6.924;2023-09-19T13:13:48;19.30;99.90
43087;DHT22;28708;52.224;6.924;2023-09-19T13:16:16;19.30;99.90
43087;DHT22;28708;52.224;6.924;2023-09-19T13:18:53;19.40;99.90
43087;DHT22;28708;52.224;6.924;2023-09-19T13:21:32;19.40;99.90
43087;DHT22;28708;52.224;6.924;2023-09-19T13:24:24;19.20;99.90
43087;DHT22;28708;52.224;6.924;2023-09-19T13:26:55;19.10;99.90
43087;DHT22;28708;52.224;6.924;2023-09-19T13:29:21;19.20;99.90
43087;DHT22;28708;52.224;6.924;2023-09-19T13:31:51;18.90;99.90
43087;DHT22;28708;52.224;6.924;2023-09-19T13:34:19;18.90;99.90
43087;DHT22;28708;52.224;6.924;2023-09-19T13:36:45;18.90;99.90
43087;DHT22;28708;52.224;6.924;2023-09-19T13:39:14;18.90;99.90
43087;DHT22;28708;52.224;6.924;2023-09-19T13:41:52;18.90;99.90
43087;DHT22;28708;52.224;6.924;2023-09-19T13:44:43;18.90;99.90
43087;DHT22;28708;52.224;6.924;2023-09-19T13:47:08;18.90;99.90
43087;DHT22;28708;52.224;6.924;2023-09-19T13:49:36;18.90;99.90
43087;DHT22;28708;52.224;6.924;2023-09-19T13:52:03;18.80;99.90
43087;DHT22;28708;52.224;6.924;2023-09-19T13:54:32;18.80;99.90
43087;DHT22;28708;52.224;6.924;2023-09-19T13:56:58;18.80;99.90
43087;DHT22;28708;52.224;6.924;2023-09-19T13:59:24;18.90;99.90
43087;DHT22;28708;52.224;6.924;2023-09-19T14:01:50;18.90;99.90
43087;DHT22;28708;52.224;6.924;2023-09-19T14:04:16;18.80;99.90
43087;DHT22;28708;52.224;6.924;2023-09-19T14:06:42;18.90;99.90
43087;DHT22;28708;52.224;6.924;2023-09-19T14:09:08;18.80;99.90
43087;DHT22;28708;52.224;6.924;2023-09-19T14:11:42;18.90;99.90
43087;DHT22;28708;52.224;6.924;2023-09-19T14:14:08;18.90;99.90
43087;DHT22;28708;52.224;6.924;2023-09-19T14:16:33;18.90;99.90
43087;DHT22;28708;52.224;6.924;2023-09-19T14:18:59;18.90;99.90
43087;DHT22;28708;52.224;6.924;2023-09-19T14:21:26;19.00;99.90
43087;DHT22;28708;52.224;6.924;2023-09-19T14:23:51;18.90;99.90
43087;DHT22;28708;52.224;6.924;2023-09-19T14:26:17;19.00;99.90
43087;DHT22;28708;52.224;6.924;2023-09-19T14:28:44;19.00;99.90
43087;DHT22;28708;52.224;6.924;2023-09-19T14:31:11;19.00;99.90
43087;DHT22;28708;52.224;6.924;2023-09-19T14:33:37;19.00;99.90
43087;DHT22;28708;52.224;6.924;2023-09-19T14:36:08;19.00;99.90
43087;DHT22;28708;52.224;6.924;2023-09-19T14:38:37;19.00;99.90
43087;DHT22;28708;52.224;6.924;2023-09-19T14:41:04;18.90;99.90
43087;DHT22;28708;52.224;6.924;2023-09-19T14:43:30;18.90;99.90
43087;DHT22;28708;52.224;6.924;2023-09-19T14:46:04;18.90;99.90
43087;DHT22;28708;52.224;6.924;2023-09-19T14:48:30;18.90;99.90
43087;DHT22;28708;52.224;6.924;2023-09-19T14:51:04;18.80;99.90
43087;DHT22;28708;52.224;6.924;2023-09-19T14:53:31;18.90;99.90
43087;DHT22;28708;52.224;6.924;2023-09-19T14:56:03;18.90;99.90
43087;DHT22;28708;52.224;6.924;2023-09-19T14:58:29;18.90;99.90
43087;DHT22;28708;52.224;6.924;2023-09-19T15:01:06;19.00;99.90
43087;DHT22;28708;52.224;6.924;2023-09-19T15:03:35;19.00;99.90
43087;DHT22;28708;52.224;6.924;2023-09-19T15:06:08;19.00;99.90
43087;DHT22;28708;52.224;6.924;2023-09-19T15:08:36;19.10;99.90
43087;DHT22;28708;52.224;6.924;2023-09-19T15:11:09;19.10;99.90
43087;DHT22;28708;52.224;6.924;2023-09-19T15:13:36;19.20;99.90
43087;DHT22;28708;52.224;6.924;2023-09-19T15:16:13;19.20;99.90
43087;DHT22;28708;52.224;6.924;2023-09-19T15:19:13;19.10;99.90
43087;DHT22;28708;52.224;6.924;2023-09-19T15:21:38;19.00;99.90
43087;DHT22;28708;52.224;6.924;2023-09-19T15:24:04;19.10;99.90
43087;DHT22;28708;52.224;6.924;2023-09-19T15:26:30;19.00;99.90
43087;DHT22;28708;52.224;6.924;2023-09-19T15:28:56;19.00;99.90
43087;DHT22;28708;52.224;6.924;2023-09-19T15:31:22;18.90;99.90
43087;DHT22;28708;52.224;6.924;2023-09-19T15:33:48;18.90;99.90
43087;DHT22;28708;52.224;6.924;2023-09-19T15:36:15;18.90;99.90
43087;DHT22;28708;52.224;6.924;2023-09-19T15:39:00;18.90;99.90
43087;DHT22;28708;52.224;6.924;2023-09-19T15:41:28;18.90;99.90
43087;DHT22;28708;52.224;6.924;2023-09-19T15:43:54;18.90;99.90
43087;DHT22;28708;52.224;6.924;2023-09-19T15:46:20;18.90;99.90
43087;DHT22;28708;52.224;6.924;2023-09-19T15:48:46;18.90;99.90
43087;DHT22;28708;52.224;6.924;2023-09-19T15:51:13;18.90;99.90
43087;DHT22;28708;52.224;6.924;2023-09-19T15:53:50;18.90;99.90
43087;DHT22;28708;52.224;6.924;2023-09-19T15:56:17;18.90;99.90
43087;DHT22;28708;52.224;6.924;2023-09-19T15:58:47;18.80;99.90
43087;DHT22;28708;52.224;6.924;2023-09-19T16:01:13;18.80;99.90
43087;DHT22;28708;52.224;6.924;2023-09-19T16:03:45;18.80;99.90
43087;DHT22;28708;52.224;6.924;2023-09-19T16:06:17;18.80;99.90
43087;DHT22;28708;52.224;6.924;2023-09-19T16:08:47;18.80;99.90
43087;DHT22;28708;52.224;6.924;2023-09-19T16:11:14;18.70;99.90
43087;DHT22;28708;52.224;6.924;2023-09-19T16:13:40;18.70;99.90
43087;DHT22;28708;52.224;6.924;2023-09-19T16:16:11;18.70;99.90
43087;DHT22;28708;52.224;6.924;2023-09-19T16:18:52;18.70;99.90
43087;DHT22;28708;52.224;6.924;2023-09-19T16:21:21;18.60;99.90
43087;DHT22;28708;52.224;6.924;2023-09-19T16:23:47;18.60;99.90
43087;DHT22;28708;52.224;6.924;2023-09-19T16:26:15;18.60;99.90
43087;DHT22;28708;52.224;6.924;2023-09-19T16:28:41;18.60;99.90
43087;DHT22;28708;52.224;6.924;2023-09-19T16:31:08;18.60;99.90
43087;DHT22;28708;52.224;6.924;2023-09-19T16:33:36;18.60;99.90
43087;DHT22;28708;52.224;6.924;2023-09-19T16:36:02;18.60;99.90
43087;DHT22;28708;52.224;6.924;2023-09-19T16:38:28;18.50;99.90